Time;durP1;ratioP1;P1;durP2;ratioP2;P2;SDS_P1;SDS_P2;PMS_P1;PMS_P2;Temp;Humidity;BMP_temperature;BMP_pressure;BME280_temperature;BME280_humidity;BME280_pressure;Samples;Min_cycle;Max_cycle;Signal;HPM_P1;HPM_P2
2023/07/09 00:01:53;;;;;;;13.55;7.38;;;;;;;;;;5065485;28;20052;-63
2023/07/09 00:04:20;;;;;;;12.15;7.93;;;;;;;;;;5067901;28;20049;-63
2023/07/09 00:06:48;;;;;;;11.38;7.45;;;;;;;;;;5066624;28;20052;-63
2023/07/09 00:09:19;;;;;;;15.23;8.10;;;;;;;;;;5065801;28;20048;-63
2023/07/09 00:11:46;;;;;;;11.95;8.48;;;;;;;;;;5065528;28;20055;-63
2023/07/09 00:14:14;;;;;;;15.45;9.23;;;;;;;;;;5057447;28;20044;-63
2023/07/09 00:16:42;;;;;;;13.93;7.47;;;;;;;;;;5064602;28;20459;-62
2023/07/09 00:19:13;;;;;;;15.43;9.98;;;;;;;;;;5066768;28;20056;-63
2023/07/09 00:21:40;;;;;;;17.92;10.05;;;;;;;;;;5069594;28;20060;-62
2023/07/09 00:24:10;;;;;;;15.00;10.05;;;;;;;;;;5067498;28;20049;-63
2023/07/09 00:26:38;;;;;;;18.45;10.02;;;;;;;;;;5065707;28;20049;-62
2023/07/09 00:29:05;;;;;;;16.30;9.52;;;;;;;;;;5067909;28;20049;-63
2023/07/09 00:31:32;;;;;;;13.43;8.93;;;;;;;;;;5065633;28;20139;-63
2023/07/09 00:34:00;;;;;;;18.45;10.23;;;;;;;;;;5069363;28;20782;-62
2023/07/09 00:36:28;;;;;;;15.52;9.45;;;;;;;;;;5069862;28;20053;-63
2023/07/09 00:39:04;;;;;;;17.38;9.38;;;;;;;;;;5067946;28;20492;-62
2023/07/09 00:41:36;;;;;;;15.15;9.85;;;;;;;;;;5068613;28;20139;-63
2023/07/09 00:44:22;;;;;;;17.30;9.93;;;;;;;;;;5062395;28;20148;-62
2023/07/09 00:46:50;;;;;;;16.67;9.77;;;;;;;;;;5058276;28;20783;-62
2023/07/09 00:49:37;;;;;;;16.25;9.35;;;;;;;;;;5066126;28;20048;-62
2023/07/09 00:52:13;;;;;;;21.05;9.20;;;;;;;;;;5066106;28;20057;-62
2023/07/09 00:54:43;;;;;;;14.00;9.48;;;;;;;;;;5064878;28;20844;-63
2023/07/09 00:57:18;;;;;;;14.20;9.98;;;;;;;;;;5067650;28;20057;-63
2023/07/09 00:59:48;;;;;;;13.73;8.90;;;;;;;;;;5067015;28;20084;-62
2023/07/09 01:02:15;;;;;;;13.10;9.70;;;;;;;;;;5064900;28;20057;-62
2023/07/09 01:04:44;;;;;;;11.00;8.07;;;;;;;;;;5068157;28;20122;-62
2023/07/09 01:07:11;;;;;;;17.15;10.57;;;;;;;;;;5066887;28;20191;-63
2023/07/09 01:09:41;;;;;;;15.65;10.13;;;;;;;;;;5062542;28;20051;-63
2023/07/09 01:12:09;;;;;;;16.67;10.63;;;;;;;;;;5049998;28;20053;-63
2023/07/09 01:14:37;;;;;;;17.75;10.18;;;;;;;;;;5051368;28;20502;-63
2023/07/09 01:17:07;;;;;;;15.13;9.93;;;;;;;;;;5051365;28;20049;-63
2023/07/09 01:19:45;;;;;;;25.73;10.75;;;;;;;;;;5050894;28;21084;-63
2023/07/09 01:22:13;;;;;;;19.25;10.75;;;;;;;;;;5051901;28;20059;-63
2023/07/09 01:25:04;;;;;;;17.73;10.23;;;;;;;;;;5050983;28;20052;-63
2023/07/09 01:27:34;;;;;;;17.23;10.68;;;;;;;;;;5051850;28;20511;-63
2023/07/09 01:30:06;;;;;;;17.88;10.63;;;;;;;;;;5050789;28;20520;-63
2023/07/09 01:32:35;;;;;;;15.02;8.80;;;;;;;;;;5053563;28;20050;-63
2023/07/09 01:35:06;;;;;;;12.20;8.52;;;;;;;;;;5053032;28;20056;-63
2023/07/09 01:37:35;;;;;;;14.15;8.23;;;;;;;;;;5064498;28;20128;-63
2023/07/09 01:40:04;;;;;;;15.45;8.75;;;;;;;;;;5067190;28;20049;-62
2023/07/09 01:42:42;;;;;;;14.85;8.63;;;;;;;;;;5066329;28;20061;-62
2023/07/09 01:45:10;;;;;;;14.35;8.82;;;;;;;;;;5069080;28;20045;-63
2023/07/09 01:47:38;;;;;;;12.73;8.40;;;;;;;;;;5065577;28;20049;-62
2023/07/09 01:50:09;;;;;;;12.57;8.38;;;;;;;;;;5070315;28;20076;-62
2023/07/09 01:52:37;;;;;;;13.00;8.35;;;;;;;;;;5067549;28;20049;-62
2023/07/09 01:55:05;;;;;;;14.02;8.80;;;;;;;;;;5069411;28;21494;-63
2023/07/09 01:57:35;;;;;;;12.25;8.82;;;;;;;;;;5066076;28;20080;-62
2023/07/09 02:00:10;;;;;;;18.10;10.00;;;;;;;;;;5069549;28;20529;-63
2023/07/09 02:02:45;;;;;;;14.98;9.77;;;;;;;;;;5066760;28;20057;-63
2023/07/09 02:05:14;;;;;;;12.80;8.25;;;;;;;;;;5069070;28;20061;-63
2023/07/09 02:07:41;;;;;;;13.50;9.35;;;;;;;;;;5049615;28;20041;-63
2023/07/09 02:10:09;;;;;;;14.85;8.60;;;;;;;;;;5055480;28;20101;-63
2023/07/09 02:12:36;;;;;;;13.13;8.95;;;;;;;;;;5053426;28;20048;-63
2023/07/09 02:15:03;;;;;;;13.73;8.05;;;;;;;;;;5054330;28;20045;-63
2023/07/09 02:17:31;;;;;;;18.20;9.10;;;;;;;;;;5053816;28;20079;-63
2023/07/09 02:19:58;;;;;;;15.48;9.60;;;;;;;;;;5054155;28;20044;-63
2023/07/09 02:22:25;;;;;;;21.50;9.85;;;;;;;;;;5053439;28;20041;-63
2023/07/09 02:24:52;;;;;;;15.90;9.68;;;;;;;;;;5053452;28;20132;-63
2023/07/09 02:27:21;;;;;;;16.73;9.95;;;;;;;;;;5037256;28;20041;-63
2023/07/09 02:29:49;;;;;;;13.50;9.95;;;;;;;;;;5053985;28;20096;-63
2023/07/09 02:32:20;;;;;;;17.23;10.63;;;;;;;;;;5061774;28;20866;-62
2023/07/09 02:34:48;;;;;;;17.95;11.15;;;;;;;;;;5070192;28;20080;-63
2023/07/09 02:37:17;;;;;;;16.42;10.48;;;;;;;;;;5066496;28;20045;-62
2023/07/09 02:39:45;;;;;;;15.23;10.63;;;;;;;;;;5068496;28;20076;-62
2023/07/09 02:42:14;;;;;;;16.95;8.50;;;;;;;;;;5064008;28;20396;-62
2023/07/09 02:44:42;;;;;;;16.85;10.50;;;;;;;;;;5072061;28;20045;-62
2023/07/09 02:47:09;;;;;;;14.50;9.35;;;;;;;;;;5068562;28;20115;-63
2023/07/09 02:49:37;;;;;;;13.52;9.32;;;;;;;;;;5069204;28;20093;-62
2023/07/09 02:52:05;;;;;;;17.02;9.30;;;;;;;;;;5068169;28;20049;-63
2023/07/09 02:54:32;;;;;;;16.90;9.77;;;;;;;;;;5068717;28;20136;-63
2023/07/09 02:56:59;;;;;;;16.42;9.32;;;;;;;;;;5069371;28;20057;-62
2023/07/09 02:59:29;;;;;;;13.60;8.75;;;;;;;;;;5068700;28;20832;-62
2023/07/09 03:01:56;;;;;;;21.20;10.25;;;;;;;;;;5064720;28;20056;-63
2023/07/09 03:04:24;;;;;;;15.10;9.02;;;;;;;;;;5034241;28;20041;-63
2023/07/09 03:06:52;;;;;;;13.02;8.73;;;;;;;;;;5051290;28;20050;-63
2023/07/09 03:09:20;;;;;;;12.00;8.43;;;;;;;;;;5052618;28;20054;-63
2023/07/09 03:11:48;;;;;;;13.35;8.88;;;;;;;;;;5054107;28;20643;-63
2023/07/09 03:14:16;;;;;;;14.20;9.20;;;;;;;;;;5053756;28;20046;-63
2023/07/09 03:16:43;;;;;;;12.57;8.63;;;;;;;;;;5053258;28;20045;-63
2023/07/09 03:19:11;;;;;;;16.10;9.05;;;;;;;;;;5053254;28;20068;-63
2023/07/09 03:21:38;;;;;;;14.05;9.23;;;;;;;;;;5054173;28;20148;-63
2023/07/09 03:24:06;;;;;;;19.55;9.65;;;;;;;;;;5053643;28;20045;-63
2023/07/09 03:26:33;;;;;;;16.52;9.98;;;;;;;;;;5050885;28;20978;-63
2023/07/09 03:29:00;;;;;;;14.57;9.07;;;;;;;;;;5035240;28;20049;-63
2023/07/09 03:31:27;;;;;;;13.23;8.30;;;;;;;;;;5052663;28;20049;-63
2023/07/09 03:33:54;;;;;;;15.50;8.80;;;;;;;;;;5054961;28;20041;-63
2023/07/09 03:36:22;;;;;;;10.75;7.70;;;;;;;;;;5066199;28;20046;-62
2023/07/09 03:38:49;;;;;;;10.90;7.57;;;;;;;;;;5070078;28;20051;-62
2023/07/09 03:41:16;;;;;;;8.68;6.40;;;;;;;;;;5065334;28;20045;-63
2023/07/09 03:43:44;;;;;;;13.10;8.10;;;;;;;;;;5067863;28;20089;-62
2023/07/09 03:46:11;;;;;;;14.60;8.73;;;;;;;;;;5065481;28;20526;-62
2023/07/09 03:48:38;;;;;;;14.57;7.45;;;;;;;;;;5065881;28;20053;-62
2023/07/09 03:51:06;;;;;;;13.65;8.50;;;;;;;;;;5067648;28;20466;-63
2023/07/09 03:53:33;;;;;;;14.77;8.35;;;;;;;;;;5065342;28;20077;-62
2023/07/09 03:56:01;;;;;;;13.88;8.70;;;;;;;;;;5063815;28;20060;-62
2023/07/09 03:58:28;;;;;;;17.67;8.27;;;;;;;;;;5055607;28;20041;-63
2023/07/09 04:00:56;;;;;;;12.73;9.20;;;;;;;;;;5049747;28;20055;-63
2023/07/09 04:03:23;;;;;;;11.18;8.10;;;;;;;;;;5065751;28;20054;-63
2023/07/09 04:05:51;;;;;;;12.07;8.05;;;;;;;;;;5066654;28;20706;-62
2023/07/09 04:08:18;;;;;;;12.27;7.65;;;;;;;;;;5067270;28;20071;-63
2023/07/09 04:10:45;;;;;;;11.20;8.23;;;;;;;;;;5066483;28;20053;-63
2023/07/09 04:13:12;;;;;;;15.23;8.48;;;;;;;;;;5066552;28;20049;-63
2023/07/09 04:15:39;;;;;;;13.65;8.20;;;;;;;;;;5066947;28;20140;-63
2023/07/09 04:18:07;;;;;;;11.60;7.90;;;;;;;;;;5052112;28;20060;-63
2023/07/09 04:20:34;;;;;;;10.13;7.45;;;;;;;;;;5067186;28;20053;-63
2023/07/09 04:23:02;;;;;;;10.18;7.10;;;;;;;;;;5066179;28;20057;-63
2023/07/09 04:25:29;;;;;;;11.48;7.45;;;;;;;;;;5067920;28;20095;-63
2023/07/09 04:27:57;;;;;;;11.95;7.63;;;;;;;;;;5066925;28;20084;-62
2023/07/09 04:30:24;;;;;;;13.57;7.85;;;;;;;;;;5064507;28;20049;-63
2023/07/09 04:32:51;;;;;;;12.80;7.25;;;;;;;;;;5066665;28;20073;-62
2023/07/09 04:35:18;;;;;;;12.98;8.35;;;;;;;;;;5066019;28;20049;-63
2023/07/09 04:37:46;;;;;;;9.43;7.03;;;;;;;;;;5069513;28;20163;-62
2023/07/09 04:40:13;;;;;;;11.73;8.48;;;;;;;;;;5067614;28;20053;-62
2023/07/09 04:42:41;;;;;;;10.57;6.78;;;;;;;;;;5065754;28;20139;-62
2023/07/09 04:45:09;;;;;;;13.02;7.75;;;;;;;;;;5066920;28;20111;-62
2023/07/09 04:47:36;;;;;;;11.55;7.90;;;;;;;;;;5066615;28;20061;-63
2023/07/09 04:50:04;;;;;;;11.68;7.78;;;;;;;;;;5069038;28;20099;-63
2023/07/09 04:52:32;;;;;;;13.65;7.70;;;;;;;;;;5067137;28;20060;-62
2023/07/09 04:54:59;;;;;;;13.35;7.50;;;;;;;;;;5056448;28;20049;-63
2023/07/09 04:57:27;;;;;;;10.48;7.43;;;;;;;;;;5059646;28;20060;-63
2023/07/09 04:59:55;;;;;;;10.65;7.45;;;;;;;;;;5070452;28;20045;-62
2023/07/09 05:02:22;;;;;;;13.57;8.15;;;;;;;;;;5065664;28;20522;-62
2023/07/09 05:04:50;;;;;;;11.07;7.47;;;;;;;;;;5063456;28;20132;-63
2023/07/09 05:07:17;;;;;;;10.32;6.38;;;;;;;;;;5067402;28;20072;-63
2023/07/09 05:09:44;;;;;;;8.52;6.82;;;;;;;;;;5066755;28;20055;-62
2023/07/09 05:12:11;;;;;;;12.23;8.15;;;;;;;;;;5066831;28;20049;-63
2023/07/09 05:14:39;;;;;;;11.40;8.00;;;;;;;;;;5066465;28;20556;-62
2023/07/09 05:17:06;;;;;;;11.80;8.00;;;;;;;;;;5071251;28;20122;-63
2023/07/09 05:19:34;;;;;;;15.48;8.40;;;;;;;;;;5068962;28;20140;-63
2023/07/09 05:22:01;;;;;;;10.40;6.82;;;;;;;;;;5071220;28;20064;-63
2023/07/09 05:24:28;;;;;;;10.40;7.03;;;;;;;;;;5068367;28;20107;-63
2023/07/09 05:26:56;;;;;;;10.20;7.30;;;;;;;;;;5069815;28;20073;-63
2023/07/09 05:29:23;;;;;;;10.63;7.53;;;;;;;;;;5068628;28;20123;-62
2023/07/09 05:31:50;;;;;;;12.27;7.80;;;;;;;;;;5070902;28;20523;-63
2023/07/09 05:34:17;;;;;;;11.32;7.88;;;;;;;;;;5070044;28;20049;-62
2023/07/09 05:36:45;;;;;;;10.07;7.28;;;;;;;;;;5069544;28;20073;-62
2023/07/09 05:39:12;;;;;;;12.57;8.10;;;;;;;;;;5068318;28;20131;-62
2023/07/09 05:41:39;;;;;;;14.18;8.57;;;;;;;;;;5070470;28;20053;-62
2023/07/09 05:44:07;;;;;;;13.73;8.80;;;;;;;;;;5068818;28;20064;-62
2023/07/09 05:46:36;;;;;;;15.52;10.80;;;;;;;;;;5067388;28;20046;-63
2023/07/09 05:49:07;;;;;;;16.30;10.02;;;;;;;;;;5069445;28;20049;-63
2023/07/09 05:51:34;;;;;;;15.10;10.98;;;;;;;;;;5057014;28;20049;-63
2023/07/09 05:54:02;;;;;;;14.75;10.63;;;;;;;;;;5054790;28;20140;-63
2023/07/09 05:56:29;;;;;;;17.33;10.68;;;;;;;;;;5054215;28;20071;-64
2023/07/09 05:58:56;;;;;;;24.73;13.52;;;;;;;;;;5052759;28;20093;-63
2023/07/09 06:01:24;;;;;;;23.20;12.70;;;;;;;;;;5051835;28;20060;-64
2023/07/09 06:03:52;;;;;;;24.00;13.38;;;;;;;;;;5066427;28;20100;-63
2023/07/09 06:06:19;;;;;;;17.40;13.48;;;;;;;;;;5067696;28;20047;-63
2023/07/09 06:08:46;;;;;;;16.70;12.63;;;;;;;;;;5068294;28;20095;-63
2023/07/09 06:11:14;;;;;;;19.00;12.88;;;;;;;;;;5069459;28;20103;-63
2023/07/09 06:13:41;;;;;;;26.60;14.38;;;;;;;;;;5068924;28;20049;-63
2023/07/09 06:16:09;;;;;;;19.50;13.27;;;;;;;;;;5069316;28;20041;-63
2023/07/09 06:18:36;;;;;;;20.00;13.52;;;;;;;;;;5068240;28;20048;-63
2023/07/09 06:21:03;;;;;;;22.85;14.75;;;;;;;;;;5069565;28;20056;-63
2023/07/09 06:23:31;;;;;;;24.27;14.13;;;;;;;;;;5067717;28;20053;-63
2023/07/09 06:25:58;;;;;;;21.15;15.38;;;;;;;;;;5066709;28;20073;-63
2023/07/09 06:28:28;;;;;;;22.27;14.38;;;;;;;;;;5055989;28;20049;-63
2023/07/09 06:30:56;;;;;;;24.15;15.20;;;;;;;;;;5067262;28;20961;-63
2023/07/09 06:33:25;;;;;;;27.20;15.00;;;;;;;;;;5067127;28;20045;-63
2023/07/09 06:35:54;;;;;;;22.73;15.57;;;;;;;;;;5068647;28;20107;-63
2023/07/09 06:38:22;;;;;;;22.20;15.30;;;;;;;;;;5064552;28;20095;-63
2023/07/09 06:40:50;;;;;;;20.05;14.23;;;;;;;;;;5068447;28;20547;-63
2023/07/09 06:43:17;;;;;;;21.15;14.80;;;;;;;;;;5067860;28;20057;-63
2023/07/09 06:45:51;;;;;;;24.10;15.45;;;;;;;;;;5058467;28;20104;-63
2023/07/09 06:48:18;;;;;;;25.85;16.10;;;;;;;;;;5053409;28;20592;-63
2023/07/09 06:50:45;;;;;;;24.13;16.23;;;;;;;;;;5057262;28;20045;-64
2023/07/09 06:53:13;;;;;;;21.75;15.88;;;;;;;;;;5068343;28;20048;-64
2023/07/09 06:55:40;;;;;;;25.83;16.10;;;;;;;;;;5069270;28;20076;-64
2023/07/09 06:58:08;;;;;;;22.55;15.20;;;;;;;;;;5068929;28;20053;-64
2023/07/09 07:00:36;;;;;;;22.48;15.43;;;;;;;;;;5067813;28;20130;-64
2023/07/09 07:03:03;;;;;;;23.13;14.52;;;;;;;;;;5056852;28;20085;-64
2023/07/09 07:05:31;;;;;;;26.67;15.07;;;;;;;;;;5069419;28;20096;-64
2023/07/09 07:07:58;;;;;;;28.08;14.68;;;;;;;;;;5066055;28;20049;-64
2023/07/09 07:10:26;;;;;;;22.10;14.68;;;;;;;;;;5068118;28;20053;-64
2023/07/09 07:12:54;;;;;;;21.42;14.45;;;;;;;;;;5069314;28;20041;-64
2023/07/09 07:15:21;;;;;;;24.40;14.15;;;;;;;;;;5065701;28;20499;-64
2023/07/09 07:17:49;;;;;;;20.35;13.20;;;;;;;;;;5068871;28;20049;-64
2023/07/09 07:20:16;;;;;;;25.58;14.45;;;;;;;;;;5068481;28;20492;-64
2023/07/09 07:22:44;;;;;;;21.35;12.82;;;;;;;;;;5073433;28;20107;-64
2023/07/09 07:25:12;;;;;;;33.90;13.15;;;;;;;;;;5068225;28;20049;-64
2023/07/09 07:27:39;;;;;;;21.55;12.95;;;;;;;;;;5068553;28;20098;-64
2023/07/09 07:30:10;;;;;;;21.48;12.85;;;;;;;;;;5070708;28;20513;-64
2023/07/09 07:32:38;;;;;;;20.58;11.98;;;;;;;;;;5065282;28;20087;-64
2023/07/09 07:35:06;;;;;;;18.88;12.95;;;;;;;;;;5068669;28;20053;-64
2023/07/09 07:37:33;;;;;;;22.08;12.85;;;;;;;;;;5069847;28;20053;-64
2023/07/09 07:40:00;;;;;;;19.00;12.38;;;;;;;;;;5069440;28;20179;-64
2023/07/09 07:42:28;;;;;;;19.13;12.15;;;;;;;;;;5066221;28;20528;-64
2023/07/09 07:44:55;;;;;;;15.13;11.45;;;;;;;;;;5054019;28;20076;-64
2023/07/09 07:47:22;;;;;;;19.45;11.23;;;;;;;;;;5066753;28;20072;-64
2023/07/09 07:49:49;;;;;;;18.08;11.52;;;;;;;;;;5065980;28;20059;-64
2023/07/09 07:52:17;;;;;;;16.13;10.55;;;;;;;;;;5068152;28;20056;-64
2023/07/09 07:54:44;;;;;;;16.80;10.60;;;;;;;;;;5048122;28;20418;-64
2023/07/09 07:57:12;;;;;;;19.73;9.93;;;;;;;;;;5061776;28;20055;-64
2023/07/09 07:59:39;;;;;;;16.70;9.45;;;;;;;;;;5043910;28;20045;-65
2023/07/09 08:02:07;;;;;;;13.30;8.10;;;;;;;;;;5062713;28;20057;-64
2023/07/09 08:04:35;;;;;;;13.30;8.48;;;;;;;;;;5063455;28;20184;-64
2023/07/09 08:07:02;;;;;;;11.70;7.60;;;;;;;;;;5065965;28;20529;-64
2023/07/09 08:09:29;;;;;;;15.38;7.55;;;;;;;;;;5068324;28;20045;-65
2023/07/09 08:11:57;;;;;;;10.23;6.90;;;;;;;;;;5063802;28;20053;-63
2023/07/09 08:14:24;;;;;;;12.80;7.43;;;;;;;;;;5066854;28;20049;-63
2023/07/09 08:16:52;;;;;;;11.27;7.22;;;;;;;;;;5065512;28;20071;-63
2023/07/09 08:19:20;;;;;;;10.80;6.78;;;;;;;;;;5067294;28;20181;-63
2023/07/09 08:21:47;;;;;;;12.98;7.22;;;;;;;;;;5066831;28;20053;-64
2023/07/09 08:24:14;;;;;;;10.55;7.25;;;;;;;;;;5064825;28;20056;-63
2023/07/09 08:26:42;;;;;;;11.90;7.47;;;;;;;;;;5046872;28;20406;-63
2023/07/09 08:29:09;;;;;;;11.27;7.18;;;;;;;;;;5064322;28;20073;-63
2023/07/09 08:31:36;;;;;;;11.73;7.15;;;;;;;;;;5066462;28;20053;-64
2023/07/09 08:34:06;;;;;;;11.23;6.72;;;;;;;;;;5064373;28;20053;-64
2023/07/09 08:36:34;;;;;;;12.98;7.65;;;;;;;;;;5066954;28;20151;-64
2023/07/09 08:39:02;;;;;;;13.00;7.50;;;;;;;;;;5065149;28;20403;-63
2023/07/09 08:41:29;;;;;;;10.90;8.15;;;;;;;;;;5047939;28;20080;-64
2023/07/09 08:44:08;;;;;;;16.58;7.57;;;;;;;;;;5055491;28;20060;-64
2023/07/09 08:46:53;;;;;;;13.70;7.13;;;;;;;;;;5053593;28;20052;-64
2023/07/09 08:49:41;;;;;;;13.18;7.18;;;;;;;;;;5061771;28;20140;-64
2023/07/09 08:52:30;;;;;;;12.55;7.68;;;;;;;;;;5069651;28;20522;-64
2023/07/09 08:55:00;;;;;;;9.73;7.70;;;;;;;;;;5065323;28;20091;-63
2023/07/09 08:57:34;;;;;;;12.35;7.68;;;;;;;;;;5049547;28;20549;-63
2023/07/09 09:00:21;;;;;;;12.50;7.45;;;;;;;;;;5066514;28;20053;-64
2023/07/09 09:03:08;;;;;;;12.02;7.20;;;;;;;;;;5063602;28;20053;-64
2023/07/09 09:05:38;;;;;;;15.10;7.75;;;;;;;;;;5065323;28;20107;-64
2023/07/09 09:08:25;;;;;;;16.17;9.02;;;;;;;;;;5064633;28;20592;-64
2023/07/09 09:10:56;;;;;;;12.13;7.13;;;;;;;;;;5065112;28;20049;-64
2023/07/09 09:13:25;;;;;;;13.48;7.00;;;;;;;;;;5049665;28;20578;-64
2023/07/09 09:15:54;;;;;;;9.45;6.75;;;;;;;;;;5066654;28;20045;-64
2023/07/09 09:18:26;;;;;;;11.18;6.38;;;;;;;;;;5064753;28;20049;-64
2023/07/09 09:20:56;;;;;;;10.05;7.03;;;;;;;;;;5049020;28;20049;-64
2023/07/09 09:23:25;;;;;;;10.52;6.72;;;;;;;;;;5065093;28;20053;-64
2023/07/09 09:25:54;;;;;;;10.20;6.70;;;;;;;;;;5066224;28;20053;-64
2023/07/09 09:28:39;;;;;;;8.85;6.53;;;;;;;;;;5066275;28;20053;-64
2023/07/09 09:31:09;;;;;;;15.10;6.60;;;;;;;;;;5061733;28;20777;-64
2023/07/09 09:33:43;;;;;;;11.63;6.60;;;;;;;;;;5067209;28;20048;-65
2023/07/09 09:36:20;;;;;;;10.82;6.57;;;;;;;;;;5059741;28;20041;-64
2023/07/09 09:38:49;;;;;;;13.23;6.50;;;;;;;;;;5054286;28;20053;-64
2023/07/09 09:41:17;;;;;;;19.73;6.00;;;;;;;;;;5058146;28;20180;-64
2023/07/09 09:43:45;;;;;;;11.85;6.20;;;;;;;;;;5064424;28;20053;-64
2023/07/09 09:46:23;;;;;;;10.40;6.05;;;;;;;;;;5066736;28;20052;-64
2023/07/09 09:48:54;;;;;;;10.93;6.05;;;;;;;;;;5058052;28;20049;-64
2023/07/09 09:51:21;;;;;;;9.13;6.40;;;;;;;;;;5066792;28;20053;-64
2023/07/09 09:53:53;;;;;;;9.30;6.22;;;;;;;;;;5066835;28;20053;-64
2023/07/09 09:56:25;;;;;;;8.07;6.05;;;;;;;;;;5064770;28;21123;-64
2023/07/09 09:58:54;;;;;;;11.73;6.57;;;;;;;;;;5064044;28;20107;-65
2023/07/09 10:01:22;;;;;;;9.80;6.38;;;;;;;;;;5064391;28;20126;-64
2023/07/09 10:03:52;;;;;;;11.05;6.05;;;;;;;;;;5067068;28;20095;-64
2023/07/09 10:06:25;;;;;;;7.28;5.47;;;;;;;;;;5066744;28;20143;-64
2023/07/09 10:09:05;;;;;;;8.05;5.85;;;;;;;;;;5071090;28;20096;-64
2023/07/09 10:11:40;;;;;;;12.45;6.53;;;;;;;;;;5066527;28;20076;-64
2023/07/09 10:14:23;;;;;;;13.35;6.20;;;;;;;;;;5069246;28;20056;-64
2023/07/09 10:16:51;;;;;;;12.75;6.78;;;;;;;;;;5070106;28;20049;-64
2023/07/09 10:19:25;;;;;;;8.32;5.85;;;;;;;;;;5064861;28;20736;-64
2023/07/09 10:22:02;;;;;;;11.07;6.53;;;;;;;;;;5065388;28;20056;-64
2023/07/09 10:24:48;;;;;;;10.52;6.15;;;;;;;;;;5066417;28;20053;-63
2023/07/09 10:27:28;;;;;;;12.80;5.75;;;;;;;;;;5062680;28;21006;-64
2023/07/09 10:30:04;;;;;;;11.27;5.57;;;;;;;;;;5067152;28;20049;-64
2023/07/09 10:32:47;;;;;;;9.80;5.43;;;;;;;;;;5054418;28;20128;-64
2023/07/09 10:35:19;;;;;;;12.48;5.78;;;;;;;;;;5065224;28;20930;-64
2023/07/09 10:38:06;;;;;;;12.07;6.22;;;;;;;;;;5066911;28;20055;-64
2023/07/09 10:40:45;;;;;;;10.30;6.35;;;;;;;;;;5052685;28;20107;-64
2023/07/09 10:43:36;;;;;;;9.07;5.90;;;;;;;;;;5065699;28;20063;-64
2023/07/09 10:46:06;;;;;;;11.40;6.00;;;;;;;;;;5068353;28;20079;-63
2023/07/09 10:48:38;;;;;;;10.02;5.75;;;;;;;;;;5050694;28;20053;-64
2023/07/09 10:51:07;;;;;;;11.25;5.95;;;;;;;;;;5062471;28;20643;-64
2023/07/09 10:53:44;;;;;;;12.02;6.20;;;;;;;;;;4996549;27;20184;-63
2023/07/09 10:56:13;;;;;;;10.95;6.38;;;;;;;;;;5063194;28;20049;-64
2023/07/09 10:58:44;;;;;;;10.75;5.72;;;;;;;;;;5064498;28;20490;-64
2023/07/09 11:01:17;;;;;;;12.07;5.63;;;;;;;;;;5067083;28;20123;-64
2023/07/09 11:03:48;;;;;;;13.93;5.53;;;;;;;;;;5065535;28;20552;-64
2023/07/09 11:06:22;;;;;;;10.65;5.22;;;;;;;;;;5048245;28;20045;-64
2023/07/09 11:08:52;;;;;;;9.88;5.70;;;;;;;;;;5066696;28;20136;-64
2023/07/09 11:11:27;;;;;;;10.02;5.85;;;;;;;;;;5066572;28;20485;-64
2023/07/09 11:13:57;;;;;;;8.40;5.68;;;;;;;;;;5054077;28;20088;-63
2023/07/09 11:16:30;;;;;;;11.20;6.03;;;;;;;;;;5068647;28;20052;-63
2023/07/09 11:19:00;;;;;;;11.75;5.90;;;;;;;;;;5067562;28;20839;-64
2023/07/09 11:21:27;;;;;;;10.43;5.60;;;;;;;;;;5067590;28;20056;-63
2023/07/09 11:23:55;;;;;;;11.98;5.75;;;;;;;;;;5066087;28;20080;-64
2023/07/09 11:26:33;;;;;;;12.68;5.45;;;;;;;;;;5068110;28;20096;-63
2023/07/09 11:29:06;;;;;;;13.90;5.75;;;;;;;;;;5056158;28;20044;-64
2023/07/09 11:31:38;;;;;;;10.60;5.47;;;;;;;;;;5063101;28;20049;-64
2023/07/09 11:34:17;;;;;;;14.02;5.93;;;;;;;;;;5068966;28;21016;-63
2023/07/09 11:36:50;;;;;;;12.45;5.57;;;;;;;;;;5069026;28;20068;-64
2023/07/09 11:39:20;;;;;;;8.93;5.72;;;;;;;;;;5062806;28;20098;-64
2023/07/09 11:41:47;;;;;;;11.20;5.25;;;;;;;;;;5063506;28;20148;-63
2023/07/09 11:44:17;;;;;;;10.57;5.60;;;;;;;;;;5068850;28;20103;-64
2023/07/09 11:46:58;;;;;;;11.88;6.00;;;;;;;;;;5064220;28;20611;-64
2023/07/09 11:49:27;;;;;;;10.70;5.82;;;;;;;;;;5069457;28;20168;-64
2023/07/09 11:51:58;;;;;;;10.73;5.65;;;;;;;;;;5051182;28;20135;-63
2023/07/09 11:54:25;;;;;;;13.13;5.80;;;;;;;;;;5072813;28;20044;-64
2023/07/09 11:56:57;;;;;;;17.35;7.10;;;;;;;;;;5062946;28;20056;-64
2023/07/09 11:59:24;;;;;;;15.68;6.75;;;;;;;;;;5063984;28;20612;-64
2023/07/09 12:01:54;;;;;;;20.73;7.80;;;;;;;;;;5067883;28;20510;-64
2023/07/09 12:04:23;;;;;;;15.00;7.55;;;;;;;;;;5069184;28;20810;-64
2023/07/09 12:06:53;;;;;;;12.50;8.05;;;;;;;;;;5068543;28;20045;-64
2023/07/09 12:09:21;;;;;;;12.43;7.88;;;;;;;;;;5061656;28;20789;-64
2023/07/09 12:11:49;;;;;;;12.88;7.82;;;;;;;;;;5067807;28;20044;-64
2023/07/09 12:14:18;;;;;;;14.27;7.70;;;;;;;;;;5067299;28;20045;-64
2023/07/09 12:16:47;;;;;;;11.90;7.38;;;;;;;;;;5067808;28;20049;-63
2023/07/09 12:19:15;;;;;;;13.93;6.78;;;;;;;;;;5063596;28;20056;-64
2023/07/09 12:21:44;;;;;;;11.98;6.90;;;;;;;;;;5068789;28;20769;-64
2023/07/09 12:24:18;;;;;;;10.45;6.18;;;;;;;;;;5066782;28;20631;-64
2023/07/09 12:26:49;;;;;;;8.80;5.80;;;;;;;;;;5055820;28;20084;-64
2023/07/09 12:29:16;;;;;;;9.35;6.10;;;;;;;;;;5052718;28;20057;-64
2023/07/09 12:31:43;;;;;;;20.70;6.38;;;;;;;;;;5056480;28;20658;-64
2023/07/09 12:34:13;;;;;;;9.32;5.65;;;;;;;;;;5053944;28;20049;-64
2023/07/09 12:36:48;;;;;;;8.20;5.40;;;;;;;;;;5066124;28;20053;-64
2023/07/09 12:39:18;;;;;;;11.07;5.90;;;;;;;;;;5067553;28;20061;-64
2023/07/09 12:41:45;;;;;;;12.25;6.32;;;;;;;;;;5066596;28;20055;-64
2023/07/09 12:44:17;;;;;;;9.80;5.90;;;;;;;;;;5066276;28;20049;-64
2023/07/09 12:46:46;;;;;;;9.30;5.95;;;;;;;;;;5065751;28;20049;-64
2023/07/09 12:49:20;;;;;;;13.02;6.15;;;;;;;;;;5067424;28;20049;-64
2023/07/09 12:51:48;;;;;;;11.00;5.93;;;;;;;;;;5041664;28;20057;-64
2023/07/09 12:54:16;;;;;;;9.18;5.60;;;;;;;;;;5067825;28;20126;-64
2023/07/09 12:56:43;;;;;;;8.88;6.15;;;;;;;;;;5068222;28;20134;-64
2023/07/09 12:59:37;;;;;;;11.35;5.93;;;;;;;;;;5068661;28;20049;-64
2023/07/09 13:02:07;;;;;;;8.32;6.28;;;;;;;;;;5063735;28;20052;-64
2023/07/09 13:04:38;;;;;;;10.38;6.07;;;;;;;;;;5072463;28;20091;-64
2023/07/09 13:07:05;;;;;;;9.63;6.00;;;;;;;;;;5062682;28;20063;-64
2023/07/09 13:09:34;;;;;;;10.02;6.32;;;;;;;;;;5067982;28;20053;-64
2023/07/09 13:12:04;;;;;;;9.02;5.60;;;;;;;;;;5051910;28;20045;-64
2023/07/09 13:14:32;;;;;;;12.45;5.07;;;;;;;;;;5065917;28;20056;-64
2023/07/09 13:17:05;;;;;;;6.50;4.40;;;;;;;;;;5069211;28;20089;-64
2023/07/09 13:19:33;;;;;;;6.78;4.50;;;;;;;;;;5065091;28;20045;-64
2023/07/09 13:22:00;;;;;;;9.82;4.78;;;;;;;;;;5052645;28;20045;-64
2023/07/09 13:24:32;;;;;;;8.73;4.72;;;;;;;;;;5067327;28;20083;-64
2023/07/09 13:27:00;;;;;;;;;;;;;;;;;;5066731;28;20175;-64
2023/07/09 13:29:27;;;;;;;12.23;5.95;;;;;;;;;;5061284;28;44331;-64
2023/07/09 13:31:55;;;;;;;10.65;5.97;;;;;;;;;;5066919;28;20055;-64
2023/07/09 13:34:24;;;;;;;10.82;6.00;;;;;;;;;;5072006;28;20056;-64
2023/07/09 13:36:53;;;;;;;8.75;5.97;;;;;;;;;;5071695;28;20185;-64
2023/07/09 13:39:21;;;;;;;12.68;6.45;;;;;;;;;;5071070;28;20104;-64
2023/07/09 13:41:50;;;;;;;10.80;6.47;;;;;;;;;;5073433;28;20071;-64
2023/07/09 13:44:20;;;;;;;10.43;7.00;;;;;;;;;;5066170;28;20053;-64
